Time;durP1;ratioP1;P1;durP2;ratioP2;P2;SDS_P1;SDS_P2;PMS_P1;PMS_P2;Temp;Humidity;BMP_temperature;BMP_pressure;BME280_temperature;BME280_humidity;BME280_pressure;Samples;Min_cycle;Max_cycle;Signal;HPM_P1;HPM_P2
2024/04/04 00:01:09;;;;;;;3.70;1.80;;;;;;;23.54;25.79;100512.64;103154;1298;70014;-88
2024/04/04 00:03:36;;;;;;;3.80;1.80;;;;;;;23.55;25.79;100505.61;103450;1302;69974;-88
2024/04/04 00:06:02;;;;;;;2.90;1.70;;;;;;;23.54;25.70;100503.86;103225;1298;74330;-87
2024/04/04 00:08:28;;;;;;;3.00;1.60;;;;;;;23.54;25.78;100498.30;103181;1300;70093;-87
2024/04/04 00:10:56;;;;;;;2.50;1.70;;;;;;;23.54;25.77;100489.28;103556;1299;70034;-88
2024/04/04 00:13:27;;;;;;;2.10;1.50;;;;;;;23.54;25.79;100486.97;103428;1299;70100;-92
2024/04/04 00:15:53;;;;;;;4.90;2.00;;;;;;;23.54;25.82;100488.10;103421;1300;69940;-87
2024/04/04 00:18:18;;;;;;;3.80;1.70;;;;;;;23.54;25.78;100487.84;103331;1300;70181;-88
2024/04/04 00:20:44;;;;;;;2.60;1.80;;;;;;;23.53;25.87;100490.46;103098;1305;69991;-87
2024/04/04 00:23:10;;;;;;;4.20;2.20;;;;;;;23.54;25.83;100492.30;103071;1300;70097;-86
2024/04/04 00:25:36;;;;;;;2.70;1.70;;;;;;;23.53;25.84;100496.21;103336;1299;69914;-88
2024/04/04 00:28:01;;;;;;;2.50;1.60;;;;;;;23.53;25.74;100495.34;103150;1300;70072;-87
2024/04/04 00:30:27;;;;;;;3.60;1.80;;;;;;;23.53;25.74;100497.45;103023;1299;70064;-87
2024/04/04 00:32:54;;;;;;;2.60;1.60;;;;;;;23.53;25.89;100499.45;103101;1299;70109;-87
2024/04/04 00:35:20;;;;;;;2.50;1.60;;;;;;;23.53;25.80;100503.10;103043;1299;70241;-87
2024/04/04 00:37:47;;;;;;;3.30;1.60;;;;;;;23.52;25.76;100502.49;103212;1300;70040;-87
2024/04/04 00:40:21;;;;;;;2.60;1.60;;;;;;;23.52;25.82;100500.19;103187;1299;71225;-92
2024/04/04 00:42:50;;;;;;;4.00;1.60;;;;;;;23.51;25.79;100495.30;103134;1302;70067;-88
2024/04/04 00:45:15;;;;;;;4.60;1.80;;;;;;;23.51;25.81;100492.48;103276;1302;71134;-87
2024/04/04 00:47:44;;;;;;;2.80;1.70;;;;;;;23.51;25.76;100492.90;103303;1304;69995;-87
2024/04/04 00:50:10;;;;;;;2.40;1.80;;;;;;;23.51;25.90;100490.33;103481;1300;69937;-87
2024/04/04 00:52:37;;;;;;;3.70;1.70;;;;;;;23.51;25.96;100493.46;103330;1300;74567;-88
2024/04/04 00:57:46;;;;;;;2.00;1.70;;;;;;;23.51;25.80;100491.46;103010;1304;70017;-87
2024/04/04 01:00:13;;;;;;;3.60;1.50;;;;;;;23.51;25.81;100481.55;102924;1302;70139;-87
2024/04/04 01:02:38;;;;;;;2.20;1.50;;;;;;;23.50;25.84;100475.24;103099;1302;70104;-87
2024/04/04 01:05:04;;;;;;;3.40;1.60;;;;;;;23.50;25.84;100469.80;103196;1302;70030;-88
2024/04/04 01:07:30;;;;;;;2.60;1.40;;;;;;;23.49;25.84;100464.73;103107;1302;70996;-88
2024/04/04 01:09:56;;;;;;;2.60;1.50;;;;;;;23.50;25.79;100462.51;102998;1305;70065;-87
2024/04/04 01:12:21;;;;;;;3.10;1.50;;;;;;;23.50;25.85;100469.08;103292;1305;70222;-87
2024/04/04 01:14:47;;;;;;;2.10;1.70;;;;;;;23.50;25.86;100465.33;103097;1301;70099;-87
2024/04/04 01:17:13;;;;;;;3.50;1.80;;;;;;;23.50;25.85;100468.42;103173;1302;70155;-87
2024/04/04 01:19:38;;;;;;;3.00;1.40;;;;;;;23.49;25.89;100468.77;103027;1302;70098;-88
2024/04/04 01:24:47;;;;;;;2.90;1.50;;;;;;;23.48;25.88;100459.08;103340;1299;67742;-88
2024/04/04 01:27:12;;;;;;;2.90;1.40;;;;;;;23.49;25.86;100460.52;103517;1302;70125;-87
2024/04/04 01:29:38;;;;;;;2.90;1.80;;;;;;;23.49;25.90;100461.55;103389;1295;69962;-87
2024/04/04 01:32:06;;;;;;;2.60;1.60;;;;;;;23.48;25.80;100461.65;103392;1301;70095;-88
2024/04/04 01:34:32;;;;;;;2.90;1.60;;;;;;;23.48;25.91;100462.73;103251;1297;70130;-88
2024/04/04 01:39:38;;;;;;;4.30;1.60;;;;;;;23.48;25.94;100473.98;103392;1299;74621;-88
2024/04/04 01:42:04;;;;;;;2.20;1.60;;;;;;;23.48;25.79;100475.27;103275;1300;70053;-87
2024/04/04 01:44:29;;;;;;;3.20;1.50;;;;;;;23.47;25.92;100478.15;103318;1304;69989;-87
2024/04/04 01:46:55;;;;;;;2.00;1.50;;;;;;;23.48;25.76;100479.80;103290;1304;70126;-88
2024/04/04 01:49:21;;;;;;;3.30;1.80;;;;;;;23.47;25.88;100475.64;103463;1302;69902;-88
2024/04/04 01:51:46;;;;;;;2.50;1.60;;;;;;;23.47;25.92;100471.52;103115;1302;70074;-88
2024/04/04 01:54:14;;;;;;;2.50;1.50;;;;;;;23.48;25.95;100471.77;103194;1300;70009;-88
2024/04/04 01:56:40;;;;;;;2.80;1.60;;;;;;;23.47;25.91;100465.31;103129;1304;70062;-88
2024/04/04 01:59:05;;;;;;;2.30;1.90;;;;;;;23.47;25.89;100464.14;103344;1302;70049;-87
2024/04/04 02:01:31;;;;;;;4.80;1.80;;;;;;;23.47;25.93;100475.17;102821;1304;70023;-87
2024/04/04 02:03:57;;;;;;;3.00;1.80;;;;;;;23.47;25.90;100484.05;102791;1298;70062;-87
2024/04/04 02:06:22;;;;;;;2.70;1.50;;;;;;;23.46;25.94;100490.64;103062;1300;70043;-87
2024/04/04 02:08:48;;;;;;;4.30;1.40;;;;;;;23.46;25.83;100486.75;102990;1298;70078;-87
2024/04/04 02:11:13;;;;;;;3.10;1.60;;;;;;;23.45;25.94;100484.73;103046;1302;70046;-88
2024/04/04 02:13:39;;;;;;;3.10;1.70;;;;;;;23.46;25.90;100482.64;103016;1301;70042;-87
2024/04/04 02:16:08;;;;;;;4.20;1.90;;;;;;;23.45;25.87;100482.14;102959;1300;69976;-88
2024/04/04 02:18:35;;;;;;;2.20;1.30;;;;;;;23.44;25.92;100478.95;102905;1303;70026;-87
2024/04/04 02:21:01;;;;;;;2.70;1.60;;;;;;;23.44;25.97;100476.23;102944;1299;70113;-88
2024/04/04 02:23:28;;;;;;;4.10;1.70;;;;;;;23.44;26.00;100476.75;102974;1305;70545;-87
2024/04/04 02:25:55;;;;;;;2.80;1.60;;;;;;;23.44;25.97;100472.95;102842;1300;70129;-87
2024/04/04 02:28:21;;;;;;;3.80;1.50;;;;;;;23.43;25.99;100466.34;102740;1305;71229;-87
2024/04/04 02:30:50;;;;;;;3.20;1.60;;;;;;;23.43;25.98;100469.88;103244;1300;70029;-90
2024/04/04 02:33:17;;;;;;;2.40;1.60;;;;;;;23.43;25.98;100470.03;104901;1299;76268;-88
2024/04/04 02:38:26;;;;;;;3.70;1.70;;;;;;;23.43;26.07;100472.96;105056;1296;69870;-87
2024/04/04 02:40:52;;;;;;;3.70;1.70;;;;;;;23.43;26.04;100475.58;103737;1296;70044;-88
2024/04/04 02:43:18;;;;;;;3.10;1.60;;;;;;;23.44;26.01;100477.47;104481;1296;69992;-88
2024/04/04 02:46:01;;;;;;;6.10;2.00;;;;;;;23.45;25.98;100477.46;103371;1296;70290;-90
2024/04/04 02:48:27;;;;;;;6.00;1.90;;;;;;;23.45;25.94;100482.39;103333;1297;74355;-87
2024/04/04 02:50:55;;;;;;;2.80;1.60;;;;;;;23.45;25.88;100481.57;103230;1297;70127;-87
2024/04/04 02:53:21;;;;;;;3.80;1.60;;;;;;;23.45;25.90;100478.29;103390;1297;69997;-87
2024/04/04 02:55:53;;;;;;;5.30;1.80;;;;;;;23.45;25.95;100479.58;103293;1297;69956;-87
2024/04/04 02:58:19;;;;;;;3.00;1.70;;;;;;;23.44;25.85;100477.83;103014;1302;69982;-86
2024/04/04 03:03:24;;;;;;;4.90;1.90;;;;;;;23.44;25.88;100471.83;103794;1300;70049;-88
2024/04/04 03:05:50;;;;;;;5.40;1.60;;;;;;;23.43;25.91;100470.08;103673;1302;70013;-87
2024/04/04 03:08:17;;;;;;;1.70;1.10;;;;;;;23.44;25.93;100475.63;103351;1300;70149;-87
2024/04/04 03:10:43;;;;;;;2.40;1.50;;;;;;;23.44;26.07;100474.96;103202;1300;70088;-87
2024/04/04 03:13:09;;;;;;;2.70;1.20;;;;;;;23.46;26.15;100481.36;103372;1302;70165;-87
2024/04/04 03:18:15;;;;;;;3.80;1.60;;;;;;;23.45;26.22;100474.02;103318;1299;69933;-86
2024/04/04 03:20:40;;;;;;;11.00;1.90;;;;;;;23.47;26.23;100477.54;103472;1299;70413;-86
2024/04/04 03:23:06;;;;;;;10.20;2.00;;;;;;;23.48;26.23;100476.03;103390;1299;70053;-86
2024/04/04 03:25:31;;;;;;;17.20;2.50;;;;;;;23.48;26.23;100475.42;103217;1302;70059;-86
2024/04/04 03:28:00;;;;;;;15.70;2.50;;;;;;;23.48;26.25;100470.21;103310;1302;70463;-86
2024/04/04 03:30:26;;;;;;;22.80;2.80;;;;;;;23.48;26.19;100471.21;103048;1303;68086;-86
2024/04/04 03:32:52;;;;;;;12.90;2.80;;;;;;;23.48;26.12;100471.66;103286;1305;70354;-86
2024/04/04 03:35:18;;;;;;;15.40;2.60;;;;;;;23.47;26.13;100469.12;103182;1305;70041;-87
2024/04/04 03:37:44;;;;;;;13.90;3.00;;;;;;;23.47;26.13;100467.26;103172;1303;70053;-86
2024/04/04 03:40:10;;;;;;;9.90;3.10;;;;;;;23.46;26.13;100468.30;103083;1301;70068;-86
2024/04/04 03:45:15;;;;;;;15.80;4.40;;;;;;;23.37;26.03;100471.89;103366;1297;74594;-88
2024/04/04 03:47:41;;;;;;;17.90;4.30;;;;;;;23.30;26.12;100473.23;103353;1297;70513;-88
2024/04/04 03:50:07;;;;;;;21.80;4.60;;;;;;;23.23;26.27;100469.40;103044;1297;69992;-88
2024/04/04 03:52:33;;;;;;;34.10;4.90;;;;;;;23.18;26.41;100469.42;103493;1297;70046;-87
2024/04/04 03:55:00;;;;;;;34.50;4.80;;;;;;;23.11;26.69;100463.83;103196;1302;70037;-88
2024/04/04 04:00:09;;;;;;;31.80;4.70;;;;;;;22.97;27.26;100460.11;103693;1297;83057;-87
2024/04/04 04:02:35;;;;;;;25.90;5.30;;;;;;;22.85;26.92;100459.39;103817;1301;72577;-87
2024/04/04 04:05:01;;;;;;;16.80;4.50;;;;;;;22.71;26.84;100457.90;103433;1299;69970;-87
2024/04/04 04:07:27;;;;;;;25.30;4.80;;;;;;;22.62;27.06;100456.38;103381;1297;69925;-86
2024/04/04 04:09:52;;;;;;;19.50;4.30;;;;;;;22.58;26.92;100458.25;103565;1299;70004;-88
2024/04/04 04:12:18;;;;;;;20.30;4.40;;;;;;;22.57;26.86;100460.98;103573;1297;70020;-88
2024/04/04 04:14:49;;;;;;;19.50;4.40;;;;;;;22.59;26.86;100456.92;104430;1297;68657;-89
2024/04/04 04:17:21;;;;;;;17.70;4.40;;;;;;;22.60;26.60;100456.40;104724;1297;70148;-87
2024/04/04 04:19:52;;;;;;;15.90;4.30;;;;;;;22.62;26.58;100451.77;104869;1297;74761;-87
2024/04/04 04:22:18;;;;;;;14.00;3.90;;;;;;;22.63;26.46;100454.05;104685;1302;84255;-86
2024/04/04 04:27:49;;;;;;;30.60;4.70;;;;;;;22.64;26.46;100451.90;86114;1291;67558;-87
2024/04/04 04:33:37;;;;;;;25.80;4.80;;;;;;;22.65;26.36;100455.80;105649;1297;73369;-91
2024/04/04 04:43:24;;;;;;;15.00;4.50;;;;;;;22.58;26.46;100471.33;88515;1292;66907;-91
2024/04/04 04:46:37;;;;;;;13.30;4.10;;;;;;;22.58;26.72;100475.23;83433;1296;68676;-86
2024/04/04 04:49:03;;;;;;;12.20;4.20;;;;;;;22.59;26.97;100470.60;104420;1300;67608;-89
2024/04/04 04:52:18;;;;;;;14.30;4.00;;;;;;;22.60;27.15;100472.19;104669;1299;72332;-86
2024/04/04 04:57:39;;;;;;;14.90;4.50;;;;;;;22.65;27.24;100479.44;83771;1298;68538;-88
2024/04/04 05:02:59;;;;;;;11.60;3.90;;;;;;;22.71;27.28;100483.45;105737;1299;67988;-87
2024/04/04 05:05:30;;;;;;;14.00;4.50;;;;;;;22.73;27.21;100485.43;105653;1297;83577;-90
2024/04/04 05:28:57;;;;;;;15.60;5.20;;;;;;;22.29;26.87;100484.86;84420;1305;68163;-86
2024/04/04 05:31:23;;;;;;;18.60;5.70;;;;;;;22.22;26.73;100482.02;104984;1305;67736;-87
2024/04/04 05:33:50;;;;;;;15.00;5.00;;;;;;;22.21;26.83;100483.37;105265;1304;82673;-89
2024/04/04 05:36:16;;;;;;;11.70;5.00;;;;;;;22.23;26.80;100482.42;105123;1305;67938;-92
2024/04/04 05:38:42;;;;;;;12.20;4.90;;;;;;;22.27;26.89;100483.78;105120;1302;67606;-88
2024/04/04 05:41:12;;;;;;;11.90;5.60;;;;;;;22.33;26.87;100485.70;104920;1306;68871;-88
2024/04/04 05:43:38;;;;;;;14.70;5.10;;;;;;;22.36;26.77;100481.60;105244;1299;67365;-88
2024/04/04 05:46:04;;;;;;;11.30;4.80;;;;;;;22.42;26.88;100480.19;105169;1305;67713;-87
2024/04/04 05:48:31;;;;;;;13.20;5.10;;;;;;;22.47;26.73;100474.69;105003;1310;68413;-86
2024/04/04 06:09:59;;;;;;;9.10;4.30;;;;;;;22.72;26.29;100485.39;105330;1302;67498;-87
2024/04/04 06:12:26;;;;;;;10.50;4.40;;;;;;;22.76;26.18;100483.73;105396;1302;74676;-87
2024/04/04 06:25:41;;;;;;;14.30;5.00;;;;;;;23.29;25.79;100489.80;106429;1280;604221;-83
2024/04/04 06:28:13;;;;;;;15.10;5.00;;;;;;;23.46;25.58;100488.48;104409;1279;3296223;-88
2024/04/04 06:30:42;;;;;;;13.10;4.30;;;;;;;23.40;25.59;100490.02;106820;1282;69994;-86
2024/04/04 06:33:12;;;;;;;;;;;;;;;23.34;25.46;100491.48;106641;1282;69785;-88
2024/04/04 07:12:42;;;;;;;19.70;4.50;;;;;;;22.77;25.38;100482.99;105513;1299;68579;-91
2024/04/04 07:21:54;;;;;;;14.00;3.80;;;;;;;22.91;25.54;100481.80;85867;1295;72857;-91
2024/04/04 07:37:37;;;;;;;10.70;4.00;;;;;;;22.94;25.48;100489.42;105480;1302;68090;-87
2024/04/04 07:40:04;;;;;;;17.80;3.90;;;;;;;22.97;25.56;100486.23;105176;1303;68722;-87
2024/04/04 07:42:33;;;;;;;15.60;3.60;;;;;;;23.01;25.54;100487.06;104881;1302;68344;-86
2024/04/04 07:51:16;;;;;;;10.20;3.70;;;;;;;23.08;25.33;100464.69;101070;1300;67952;-89
2024/04/04 07:57:18;;;;;;;13.60;3.80;;;;;;;23.13;25.23;100468.59;101910;1296;68887;-87
2024/04/04 07:59:47;;;;;;;20.30;4.30;;;;;;;23.15;25.17;100469.80;104990;1300;68494;-92
2024/04/04 08:02:13;;;;;;;13.80;4.80;;;;;;;23.16;25.11;100473.02;105098;1303;68292;-87
2024/04/04 08:04:39;;;;;;;18.00;4.10;;;;;;;23.15;24.88;100468.00;105204;1302;68687;-86
2024/04/04 08:07:05;;;;;;;13.00;3.30;;;;;;;23.12;24.69;100467.17;104951;1302;68498;-84
2024/04/04 08:09:30;;;;;;;8.10;3.40;;;;;;;23.07;24.52;100470.59;104989;1302;67769;-85
2024/04/04 08:11:59;;;;;;;10.30;3.40;;;;;;;23.03;24.41;100470.48;104867;1309;68640;-84
2024/04/04 08:14:25;;;;;;;13.60;3.50;;;;;;;22.99;24.26;100478.77;104972;1302;67324;-85
2024/04/04 08:16:51;;;;;;;17.30;3.70;;;;;;;22.95;24.26;100474.70;105285;1302;67698;-86
2024/04/04 08:19:17;;;;;;;10.50;3.30;;;;;;;22.95;24.28;100475.42;105014;1302;68869;-84
2024/04/04 08:21:42;;;;;;;18.00;3.70;;;;;;;22.99;24.35;100478.05;105075;1301;67969;-86
2024/04/04 08:24:08;;;;;;;17.00;3.20;;;;;;;23.00;24.42;100479.73;105197;1301;68260;-85
2024/04/04 08:32:43;;;;;;;10.30;3.10;;;;;;;22.92;24.07;100480.52;105261;1303;71641;-88
2024/04/04 08:37:57;;;;;;;10.40;3.60;;;;;;;22.92;24.11;100480.06;86088;1299;67346;-88
2024/04/04 08:40:24;;;;;;;13.50;4.00;;;;;;;22.91;24.09;100476.06;105386;1300;76128;-89
2024/04/04 08:42:56;;;;;;;15.60;4.70;;;;;;;22.91;24.18;100473.44;105406;1299;83166;-91
2024/04/04 08:45:47;;;;;;;13.30;4.90;;;;;;;22.93;24.33;100476.11;105400;1298;74714;-87
2024/04/04 08:48:20;;;;;;;13.20;5.20;;;;;;;22.95;24.34;100475.41;105280;1302;68151;-87
2024/04/04 08:50:47;;;;;;;15.00;5.00;;;;;;;22.98;24.40;100474.63;105287;1302;67688;-86
2024/04/04 08:53:19;;;;;;;12.20;4.90;;;;;;;23.02;24.49;100474.44;105151;1302;67818;-87
2024/04/04 08:55:45;;;;;;;18.10;5.40;;;;;;;23.04;24.47;100476.98;105291;1300;74274;-85
2024/04/04 08:58:12;;;;;;;13.40;5.40;;;;;;;23.08;24.58;100471.22;105495;1303;68467;-89
2024/04/04 09:00:49;;;;;;;13.70;5.70;;;;;;;23.09;24.66;100469.40;105334;1303;67641;-87
2024/04/04 09:03:19;;;;;;;14.40;5.30;;;;;;;23.13;24.67;100468.02;105346;1302;67903;-90
2024/04/04 09:05:52;;;;;;;14.40;5.00;;;;;;;23.15;24.72;100466.16;105627;1301;67960;-89
2024/04/04 09:08:38;;;;;;;10.90;5.00;;;;;;;23.17;24.78;100463.01;105444;1301;72848;31
2024/04/04 09:11:08;;;;;;;11.70;4.70;;;;;;;23.19;24.76;100462.18;105479;1302;68039;-89
2024/04/04 09:13:38;;;;;;;13.80;5.70;;;;;;;23.21;24.75;100461.05;105393;1300;67750;-90
2024/04/04 09:16:26;;;;;;;21.70;5.60;;;;;;;23.22;24.74;100464.32;84594;1307;67315;-86
2024/04/04 09:18:52;;;;;;;16.60;5.00;;;;;;;23.23;24.74;100465.25;105351;1302;74446;-86
2024/04/04 09:21:27;;;;;;;17.40;4.20;;;;;;;23.22;24.53;100468.52;105256;1301;68949;-89
2024/04/04 09:26:49;;;;;;;12.00;3.50;;;;;;;23.16;24.33;100464.98;105550;1299;67727;-89
2024/04/04 09:31:57;;;;;;;15.20;3.80;;;;;;;23.10;24.35;100467.65;105381;1302;74682;-87
2024/04/04 09:34:24;;;;;;;19.60;3.90;;;;;;;23.08;24.32;100464.52;105272;1302;67837;-88
2024/04/04 09:36:49;;;;;;;12.30;3.90;;;;;;;23.08;24.36;100468.89;105171;1305;67793;-87
2024/04/04 09:39:19;;;;;;;19.50;3.10;;;;;;;23.11;24.37;100470.71;105199;1305;68391;-87
2024/04/04 09:41:44;;;;;;;20.40;2.80;;;;;;;23.12;24.06;100467.02;105140;1304;67577;-85
2024/04/04 09:46:50;;;;;;;15.10;2.40;;;;;;;23.11;23.69;100457.02;105457;1299;74593;-85
2024/04/04 09:49:15;;;;;;;9.70;2.80;;;;;;;23.09;23.31;100456.64;105356;1299;67942;-83
2024/04/04 09:51:42;;;;;;;9.90;2.10;;;;;;;23.07;23.28;100457.20;105450;1299;67803;-86
2024/04/04 09:54:09;;;;;;;11.70;2.10;;;;;;;23.06;23.09;100455.33;105433;1299;68006;-86
2024/04/04 09:56:35;;;;;;;8.20;2.20;;;;;;;23.06;23.03;100459.27;105531;1299;67797;-86
2024/04/04 09:59:00;;;;;;;15.80;2.20;;;;;;;23.05;22.90;100456.80;105483;1299;69173;-84
2024/04/04 10:01:26;;;;;;;13.80;2.40;;;;;;;23.06;23.00;100458.30;105572;1301;67112;-88
2024/04/04 10:21:57;;;;;;;9.10;2.60;;;;;;;23.18;23.60;100461.10;105249;1299;552190;-92
2024/04/04 10:40:37;;;;;;;13.00;4.60;;;;;;;23.69;23.11;100463.48;108241;1260;603311;-86
2024/04/04 10:52:39;;;;;;;12.40;4.30;;;;;;;23.57;23.45;100467.42;109134;1262;72352;-89
2024/04/04 11:28:30;;;;;;;7.30;2.90;;;;;;;23.28;24.35;100479.89;108849;1263;68700;-91
2024/04/04 11:55:12;;;;;;;12.00;2.90;;;;;;;23.22;25.19;100467.97;109177;1260;72576;-93
2024/04/04 12:21:18;;;;;;;9.80;2.40;;;;;;;23.29;25.44;100457.38;108822;1262;73663;-86
2024/04/04 12:29:44;;;;;;;9.10;2.80;;;;;;;23.29;25.41;100455.17;109008;1262;68113;-89
2024/04/04 12:43:46;;;;;;;12.50;2.90;;;;;;;23.29;25.52;100438.96;108650;1262;553111;-92
2024/04/04 13:16:38;;;;;;;8.10;2.80;;;;;;;23.35;25.39;100412.77;108342;1260;561344;-92
2024/04/04 13:19:03;;;;;;;9.40;2.90;;;;;;;23.35;25.36;100405.27;108463;1260;74210;-89
2024/04/04 13:21:29;;;;;;;10.20;3.40;;;;;;;23.35;25.39;100407.98;108126;1260;69997;-88
2024/04/04 13:24:00;;;;;;;12.60;2.90;;;;;;;23.34;25.36;100405.53;108074;1262;68025;-90
2024/04/04 14:08:15;;;;;;;11.00;2.20;;;;;;;23.40;24.93;100372.71;108504;1263;69773;-91
2024/04/04 14:11:04;;;;;;;14.20;2.20;;;;;;;23.39;24.76;100373.23;108543;1263;69897;-89
2024/04/04 14:13:33;;;;;;;13.90;2.20;;;;;;;23.38;24.52;100373.86;108504;1262;69905;-91
2024/04/04 14:36:30;;;;;;;11.20;1.80;;;;;;;23.38;24.04;100376.83;108851;1264;555039;-85
2024/04/04 14:38:55;;;;;;;12.60;2.10;;;;;;;23.38;24.09;100370.68;107735;1264;70083;-87
2024/04/04 14:41:21;;;;;;;11.50;2.20;;;;;;;23.38;24.07;100375.91;107941;1268;67941;-87
2024/04/04 14:43:47;;;;;;;10.50;2.10;;;;;;;23.39;24.07;100374.00;107790;1264;67521;-87
2024/04/04 14:48:51;;;;;;;8.20;1.60;;;;;;;23.38;23.92;100371.39;107900;1264;67761;-87
2024/04/04 14:51:17;;;;;;;12.60;1.90;;;;;;;23.39;23.88;100371.13;107823;1266;67369;-86
2024/04/04 14:53:53;;;;;;;8.90;1.80;;;;;;;23.38;23.89;100370.82;107886;1267;67764;-86
2024/04/04 14:56:19;;;;;;;6.00;1.70;;;;;;;23.38;23.86;100367.48;107981;1267;68731;-86
2024/04/04 14:58:44;;;;;;;7.20;2.20;;;;;;;23.37;23.71;100366.88;107806;1267;70001;-86
2024/04/04 15:01:27;;;;;;;14.80;2.20;;;;;;;23.37;23.71;100368.83;107644;1267;70013;-90
2024/04/04 15:03:52;;;;;;;11.00;1.60;;;;;;;23.36;23.62;100372.09;107375;1267;69925;-86
2024/04/04 15:06:18;;;;;;;9.00;2.10;;;;;;;23.35;23.55;100373.54;107518;1269;70131;-85
2024/04/04 15:08:45;;;;;;;5.00;1.50;;;;;;;23.34;23.46;100371.23;107478;1267;70037;-85
2024/04/04 15:11:11;;;;;;;11.60;1.90;;;;;;;23.34;23.55;100369.77;107428;1266;67964;-85
2024/04/04 15:13:36;;;;;;;11.00;1.90;;;;;;;23.33;23.54;100372.19;107441;1270;69971;-85
2024/04/04 15:16:11;;;;;;;9.70;1.90;;;;;;;23.33;23.54;100374.02;107491;1266;69954;-91
2024/04/04 15:18:37;;;;;;;8.00;1.80;;;;;;;23.32;23.52;100374.39;107382;1265;74464;-85
2024/04/04 15:21:03;;;;;;;8.40;1.70;;;;;;;23.32;23.53;100379.27;107457;1267;70091;-85
2024/04/04 15:23:29;;;;;;;5.00;1.50;;;;;;;23.32;23.42;100377.39;107369;1267;68103;-85
2024/04/04 15:25:55;;;;;;;7.30;1.90;;;;;;;23.29;23.12;100381.96;107462;1270;67574;-85
2024/04/04 15:28:23;;;;;;;6.30;3.30;;;;;;;23.24;23.04;100384.02;107466;1267;67983;-85
2024/04/04 15:30:49;;;;;;;9.40;2.80;;;;;;;23.19;22.80;100385.80;107307;1270;70017;-85
2024/04/04 15:33:14;;;;;;;6.00;2.00;;;;;;;23.13;22.61;100388.73;107390;1267;69931;-85
2024/04/04 15:35:41;;;;;;;9.60;1.70;;;;;;;23.06;22.50;100392.24;107402;1264;69963;-85
2024/04/04 15:38:06;;;;;;;7.40;1.80;;;;;;;23.00;22.52;100396.55;107364;1267;70023;-85
2024/04/04 15:40:32;;;;;;;6.30;1.60;;;;;;;22.96;22.48;100398.70;107413;1265;69988;-85
2024/04/04 15:42:59;;;;;;;7.00;1.70;;;;;;;22.95;22.45;100398.92;107323;1267;70062;-85
2024/04/04 15:45:25;;;;;;;3.60;1.40;;;;;;;22.94;22.42;100402.10;107250;1266;69777;-85
2024/04/04 15:47:51;;;;;;;7.60;1.50;;;;;;;22.93;22.55;100401.65;106835;1265;70506;-86
2024/04/04 15:50:16;;;;;;;9.50;1.90;;;;;;;22.93;22.45;100402.46;106762;1267;70349;-85
2024/04/04 15:52:42;;;;;;;13.40;2.40;;;;;;;22.93;22.56;100405.14;106819;1266;69952;-85
2024/04/04 15:55:07;;;;;;;7.60;2.00;;;;;;;22.92;22.71;100410.95;106850;1267;69947;-85
2024/04/04 15:57:33;;;;;;;9.10;2.50;;;;;;;22.91;22.65;100410.03;106687;1266;69980;-86
2024/04/04 15:59:59;;;;;;;5.20;2.00;;;;;;;22.90;22.70;100412.60;106843;1267;69911;-86
2024/04/04 16:02:27;;;;;;;8.80;2.40;;;;;;;22.90;22.80;100417.70;106738;1270;69854;-86
2024/04/04 16:04:53;;;;;;;7.60;2.20;;;;;;;22.91;22.82;100419.42;106630;1266;69956;-85
2024/04/04 16:07:22;;;;;;;4.60;2.20;;;;;;;22.90;22.93;100423.84;106868;1269;70009;-85
2024/04/04 16:09:55;;;;;;;9.30;2.00;;;;;;;22.89;22.98;100423.17;106802;1265;69961;-90
2024/04/04 16:12:21;;;;;;;7.20;2.30;;;;;;;22.89;23.08;100424.88;106794;1267;69887;-85
2024/04/04 16:14:46;;;;;;;7.90;2.20;;;;;;;22.89;23.11;100429.27;106748;1265;69954;-85
2024/04/04 16:17:12;;;;;;;7.00;2.10;;;;;;;22.90;23.18;100438.26;106821;1267;69916;-85
2024/04/04 16:19:39;;;;;;;5.90;1.90;;;;;;;22.90;23.20;100435.86;106984;1265;70015;-85
2024/04/04 16:22:05;;;;;;;8.30;2.30;;;;;;;22.90;23.37;100434.88;106903;1265;69934;-85
2024/04/04 16:24:31;;;;;;;7.60;2.30;;;;;;;22.90;23.36;100441.27;106992;1265;69959;-86
2024/04/04 16:26:57;;;;;;;6.80;2.10;;;;;;;22.91;23.41;100443.13;107006;1270;70008;-85
2024/04/04 16:29:22;;;;;;;6.00;2.00;;;;;;;22.90;23.59;100447.08;106787;1267;69940;-87
2024/04/04 16:31:49;;;;;;;5.80;2.10;;;;;;;22.90;23.64;100450.01;107123;1265;70027;-88
2024/04/04 16:34:15;;;;;;;7.50;2.10;;;;;;;22.90;23.80;100449.19;107050;1267;69991;-88
2024/04/04 16:39:24;;;;;;;8.10;2.20;;;;;;;22.90;24.05;100452.21;107079;1268;72405;-88
2024/04/04 16:41:50;;;;;;;7.80;2.40;;;;;;;22.89;24.15;100459.60;107649;1264;70021;-86
2024/04/04 16:44:15;;;;;;;5.80;2.50;;;;;;;22.89;24.28;100459.15;107837;1268;68107;-86
2024/04/04 16:46:41;;;;;;;8.30;2.70;;;;;;;22.89;24.44;100463.97;107591;1264;70018;-87
2024/04/04 16:49:09;;;;;;;6.30;2.40;;;;;;;22.89;24.58;100465.10;107504;1260;68130;-85
2024/04/04 16:51:35;;;;;;;5.80;2.50;;;;;;;22.88;24.63;100465.25;107208;1260;70022;-88
2024/04/04 16:54:01;;;;;;;7.40;2.50;;;;;;;22.88;24.75;100468.53;107284;1260;67771;-87
2024/04/04 16:56:27;;;;;;;7.00;2.40;;;;;;;22.88;24.77;100473.01;107420;1261;69997;-87
2024/04/04 16:58:53;;;;;;;8.70;2.70;;;;;;;22.88;24.91;100468.59;107483;1260;68707;-88
2024/04/04 17:01:19;;;;;;;9.30;2.70;;;;;;;22.87;24.93;100471.79;107266;1260;72393;-87
2024/04/04 17:03:49;;;;;;;10.60;2.80;;;;;;;22.86;24.93;100470.30;107383;1263;69980;-91
2024/04/04 17:06:14;;;;;;;8.50;2.70;;;;;;;22.86;25.06;100472.92;107271;1261;69789;-88
2024/04/04 17:08:40;;;;;;;6.00;2.40;;;;;;;22.85;25.08;100469.19;107391;1260;70016;-87
2024/04/04 17:11:05;;;;;;;6.30;2.50;;;;;;;22.84;24.99;100470.64;107319;1261;69923;-87
2024/04/04 17:13:31;;;;;;;5.10;2.40;;;;;;;22.82;25.01;100472.70;107477;1260;69994;-87
2024/04/04 17:16:06;;;;;;;6.60;2.40;;;;;;;22.67;25.01;100477.63;107504;1261;70039;-88
2024/04/04 17:21:15;;;;;;;6.60;2.80;;;;;;;22.42;25.22;100489.77;107565;1264;82732;-87
2024/04/04 17:23:40;;;;;;;7.50;2.80;;;;;;;22.27;25.47;100491.23;107401;1264;69976;-88
2024/04/04 17:26:06;;;;;;;7.20;2.80;;;;;;;22.16;25.57;100490.36;107475;1264;70008;-87
2024/04/04 17:28:33;;;;;;;5.00;2.50;;;;;;;22.09;25.78;100501.51;107633;1264;68166;-88
2024/04/04 17:30:59;;;;;;;16.20;2.70;;;;;;;22.01;25.97;100499.48;107408;1270;70030;-88
2024/04/04 17:33:25;;;;;;;8.30;3.10;;;;;;;21.92;26.06;100498.27;107329;1264;70000;-87
2024/04/04 17:35:53;;;;;;;9.00;3.10;;;;;;;21.85;26.17;100503.84;107459;1264;68594;-87
2024/04/04 17:38:20;;;;;;;7.70;3.00;;;;;;;21.83;26.27;100507.99;107394;1266;69929;-87
2024/04/04 17:40:46;;;;;;;14.10;4.00;;;;;;;21.79;26.54;100507.59;107285;1267;69964;-88
2024/04/04 17:43:12;;;;;;;16.10;3.70;;;;;;;21.78;26.80;100512.98;107242;1270;70018;-87
2024/04/04 17:45:40;;;;;;;13.50;3.60;;;;;;;21.75;26.79;100512.69;107155;1262;69915;-92
2024/04/04 17:48:07;;;;;;;13.80;4.30;;;;;;;21.65;26.87;100514.74;107033;1264;72335;-88
2024/04/04 17:50:34;;;;;;;13.60;4.40;;;;;;;21.57;27.06;100514.90;107086;1265;70020;-87
2024/04/04 17:53:00;;;;;;;14.10;4.00;;;;;;;21.50;26.97;100518.85;107085;1266;69989;-87
2024/04/04 17:55:29;;;;;;;11.10;4.30;;;;;;;21.45;27.31;100520.64;107323;1264;74396;-87
2024/04/04 17:57:55;;;;;;;10.30;4.50;;;;;;;21.40;27.40;100524.48;107030;1267;69998;-87
2024/04/04 18:00:21;;;;;;;8.90;4.30;;;;;;;21.35;27.47;100527.77;107001;1269;70015;-87
2024/04/04 18:02:47;;;;;;;12.60;4.50;;;;;;;21.32;27.53;100530.79;107113;1268;70049;-87
2024/04/04 18:05:13;;;;;;;10.10;4.40;;;;;;;21.36;27.66;100535.50;106998;1264;70006;-87
2024/04/04 18:07:40;;;;;;;10.90;4.00;;;;;;;21.45;27.63;100535.08;107185;1264;69868;-87
2024/04/04 18:10:06;;;;;;;7.80;4.00;;;;;;;21.54;27.72;100533.38;106967;1266;69906;-88
2024/04/04 18:12:33;;;;;;;8.00;3.90;;;;;;;21.63;27.64;100532.68;107022;1269;70101;-93
2024/04/04 18:14:59;;;;;;;7.80;4.10;;;;;;;21.72;27.56;100540.80;107029;1264;70020;-87